Decoded Metar for BIKF (KEFLAVIK in ICELAND) (IATA:KEF) | Meteo·Mobile Aviation Weather
aviador You're here:

BIKF Decoded Metar

KEFLAVIK in ICELAND
Report Time2019-04-18 20:30:00
UTC Time2019-04-18 21:05:37
Flight Rules lifr LIFR
Wind150° at 23 kt
W.Decomp.*RWY 20: 19.1 kt HW 12.9 kt LCW
RWY 11: 12.9 kt HW 19.1 kt RCW
Visibility2000 m
Phenomena:N/A
Clouds:Broken 004 Hf
Overcast 013 Hf
Ceiling400 ft
Temp08°C (ISA -7)
Dew Point08°C (100% RH)
AAT-0.7°C
QNH1003 hPa
Density Alt-135 ft
Elevation177 ft
Report Wrong Elevation
Raw Report
METAR BIKF 182030Z 15023KT 2000 -DZRA BKN004 OVC013 08/08 Q1003=

Extra information for BIKF:More info

Metar Taf Metar & Taf Last 4 Metars F.Rules Stats Wind Profile Meteogram Temp Stats Airport Information Weather charts Add Link Nearby VenuesMetar ALERT Operation Metar Decoded Social comments